KLRD/LRD METAR and TAF weather

Enter ICAO airport designator
Station Type Date Time Source
KLRD METAR 2020/06/03 15:56 UTC NOAA

KLRD 031556Z 13009KT 10SM CLR 30/23 A2998 RMK AO2 SLP147 T03000228


Station Type Date Time Source
KLRD Decoded METAR 2020/06/03 15:56 UTC NOAA

Laredo, Laredo International Airport, TX, United States (KLRD) 27-32-37N 099-27-41W
Jun 03, 2020 - 11:56 AM EDT / 2020.06.03 1556 UTC
Wind: from the SE (130 degrees) at 10 MPH (9 KT):0
Visibility: 10 mile(s):0
Sky conditions: clear
Temperature: 86.0 F (30.0 C)
Heat index: 93.0 F (33.9 C):1
Dew Point: 73.0 F (22.8 C)
Relative Humidity: 65%
Pressure (altimeter): 29.98 in. Hg (1015 hPa)
ob: KLRD 031556Z 13009KT 10SM CLR 30/23 A2998 RMK AO2 SLP147 T03000228
cycle: 16

Station Type Date Time Source
KLRD TAF 2020/06/03 12:24 UTC NOAA

TAF KLRD 031123Z 0312/0412 11007KT P6SM SCT010
FM031600 14010KT P6SM SCT035 BKN250

Example: see airport list